sensor_id;sensor_type;location;lat;lon;timestamp;pressure;altitude;pressure_sealevel;temperature;humidity
17781;BME280;8498;52.516;13.790;2023-02-18T00:02:39;100932.50;;;8.68;68.89
17781;BME280;8498;52.516;13.790;2023-02-18T00:08:01;100935.66;;;8.59;69.07
17781;BME280;8498;52.516;13.790;2023-02-18T00:13:24;100935.38;;;8.63;70.17
17781;BME280;8498;52.516;13.790;2023-02-18T00:18:46;100925.59;;;8.50;70.21
17781;BME280;8498;52.516;13.790;2023-02-18T00:24:11;100938.97;;;8.62;70.58
17781;BME280;8498;52.516;13.790;2023-02-18T00:29:36;100936.09;;;8.51;70.96
17781;BME280;8498;52.516;13.790;2023-02-18T00:34:59;100932.16;;;8.58;70.97
17781;BME280;8498;52.516;13.790;2023-02-18T00:40:22;100920.22;;;8.51;70.98
17781;BME280;8498;52.516;13.790;2023-02-18T00:45:44;100952.91;;;8.50;70.96
17781;BME280;8498;52.516;13.790;2023-02-18T00:51:07;100927.88;;;8.40;71.62
17781;BME280;8498;52.516;13.790;2023-02-18T00:56:30;100935.47;;;8.46;71.71
17781;BME280;8498;52.516;13.790;2023-02-18T01:01:52;100948.38;;;8.36;72.54
17781;BME280;8498;52.516;13.790;2023-02-18T01:07:15;100941.13;;;8.23;73.38
17781;BME280;8498;52.516;13.790;2023-02-18T01:12:38;100942.66;;;8.11;73.44
17781;BME280;8498;52.516;13.790;2023-02-18T01:18:00;100948.16;;;8.24;73.32
17781;BME280;8498;52.516;13.790;2023-02-18T01:23:23;100941.19;;;8.05;74.00
17781;BME280;8498;52.516;13.790;2023-02-18T01:28:45;100931.19;;;7.95;74.91
17781;BME280;8498;52.516;13.790;2023-02-18T01:34:08;100935.22;;;8.02;74.64
17781;BME280;8498;52.516;13.790;2023-02-18T01:39:30;100945.44;;;7.92;75.17
17781;BME280;8498;52.516;13.790;2023-02-18T01:44:53;100940.78;;;7.80;75.16
17781;BME280;8498;52.516;13.790;2023-02-18T01:50:16;100938.84;;;7.84;75.84
17781;BME280;8498;52.516;13.790;2023-02-18T01:55:38;100935.41;;;7.82;75.46
17781;BME280;8498;52.516;13.790;2023-02-18T02:01:00;100926.81;;;7.78;75.44
17781;BME280;8498;52.516;13.790;2023-02-18T02:06:24;100942.56;;;7.80;75.51
17781;BME280;8498;52.516;13.790;2023-02-18T02:34:31;100929.44;;;7.78;75.34
17781;BME280;8498;52.516;13.790;2023-02-18T02:40:16;100953.09;;;7.64;75.73
17781;BME280;8498;52.516;13.790;2023-02-18T02:45:47;100950.91;;;7.72;75.74
17781;BME280;8498;52.516;13.790;2023-02-18T02:51:56;100951.06;;;7.69;75.36
17781;BME280;8498;52.516;13.790;2023-02-18T02:57:40;100954.81;;;7.65;76.18
17781;BME280;8498;52.516;13.790;2023-02-18T03:09:20;100971.69;;;7.62;75.65
17781;BME280;8498;52.516;13.790;2023-02-18T03:15:03;100972.75;;;7.58;75.91
17781;BME280;8498;52.516;13.790;2023-02-18T03:20:33;100968.47;;;7.73;75.38
17781;BME280;8498;52.516;13.790;2023-02-18T03:25:58;100983.19;;;7.61;75.33
17781;BME280;8498;52.516;13.790;2023-02-18T03:31:25;100987.00;;;7.56;75.74
17781;BME280;8498;52.516;13.790;2023-02-18T03:36:48;100982.25;;;7.62;75.20
17781;BME280;8498;52.516;13.790;2023-02-18T03:42:11;100959.72;;;7.55;75.75
17781;BME280;8498;52.516;13.790;2023-02-18T03:47:34;100969.69;;;7.67;74.67
17781;BME280;8498;52.516;13.790;2023-02-18T03:52:57;100982.72;;;7.70;74.82
17781;BME280;8498;52.516;13.790;2023-02-18T03:58:19;100974.09;;;7.67;74.45
17781;BME280;8498;52.516;13.790;2023-02-18T04:03:42;100977.28;;;7.56;74.37
17781;BME280;8498;52.516;13.790;2023-02-18T04:09:04;100984.69;;;7.67;74.02
17781;BME280;8498;52.516;13.790;2023-02-18T04:14:30;100983.97;;;7.63;74.06
17781;BME280;8498;52.516;13.790;2023-02-18T04:19:52;100990.25;;;7.61;73.63
17781;BME280;8498;52.516;13.790;2023-02-18T04:25:15;100995.81;;;7.56;73.50
17781;BME280;8498;52.516;13.790;2023-02-18T04:30:38;101000.22;;;7.56;73.68
17781;BME280;8498;52.516;13.790;2023-02-18T04:36:00;101014.59;;;7.50;73.77
17781;BME280;8498;52.516;13.790;2023-02-18T04:41:22;101011.28;;;7.47;73.82
17781;BME280;8498;52.516;13.790;2023-02-18T04:46:45;101013.19;;;7.43;73.79
17781;BME280;8498;52.516;13.790;2023-02-18T04:52:07;101012.34;;;7.43;73.28
17781;BME280;8498;52.516;13.790;2023-02-18T04:57:30;101010.63;;;7.42;73.46
17781;BME280;8498;52.516;13.790;2023-02-18T05:02:52;101003.78;;;7.37;73.81
17781;BME280;8498;52.516;13.790;2023-02-18T05:08:15;101005.03;;;7.30;74.04
17781;BME280;8498;52.516;13.790;2023-02-18T05:13:37;101002.28;;;7.15;74.80
17781;BME280;8498;52.516;13.790;2023-02-18T05:18:59;100999.19;;;7.24;74.54
17781;BME280;8498;52.516;13.790;2023-02-18T05:24:22;100984.81;;;7.29;74.36
17781;BME280;8498;52.516;13.790;2023-02-18T05:29:44;100990.88;;;7.31;74.15
17781;BME280;8498;52.516;13.790;2023-02-18T05:35:07;100981.22;;;7.30;74.10
17781;BME280;8498;52.516;13.790;2023-02-18T05:40:30;100980.16;;;7.34;74.12
17781;BME280;8498;52.516;13.790;2023-02-18T05:45:52;100982.81;;;7.34;73.45
17781;BME280;8498;52.516;13.790;2023-02-18T05:51:15;100974.47;;;7.42;73.17
17781;BME280;8498;52.516;13.790;2023-02-18T05:56:38;100993.53;;;7.49;73.34
17781;BME280;8498;52.516;13.790;2023-02-18T06:02:00;100980.16;;;7.52;72.76
17781;BME280;8498;52.516;13.790;2023-02-18T06:07:22;100980.47;;;7.46;73.02
17781;BME280;8498;52.516;13.790;2023-02-18T06:12:45;100982.66;;;7.55;72.36
17781;BME280;8498;52.516;13.790;2023-02-18T06:18:07;100991.59;;;7.52;72.32
17781;BME280;8498;52.516;13.790;2023-02-18T06:23:29;100995.88;;;7.72;71.63
17781;BME280;8498;52.516;13.790;2023-02-18T06:28:51;100989.78;;;7.70;70.96
17781;BME280;8498;52.516;13.790;2023-02-18T06:34:14;101000.06;;;7.76;70.72
17781;BME280;8498;52.516;13.790;2023-02-18T06:39:38;101001.06;;;7.73;70.74
17781;BME280;8498;52.516;13.790;2023-02-18T06:45:00;100979.97;;;7.89;70.10
17781;BME280;8498;52.516;13.790;2023-02-18T06:50:22;100970.94;;;7.93;69.97
17781;BME280;8498;52.516;13.790;2023-02-18T06:55:45;100965.50;;;7.96;69.60
17781;BME280;8498;52.516;13.790;2023-02-18T07:01:07;100969.69;;;8.00;69.82
17781;BME280;8498;52.516;13.790;2023-02-18T07:06:30;100974.03;;;8.01;69.85
17781;BME280;8498;52.516;13.790;2023-02-18T07:11:53;100981.94;;;8.36;70.28
17781;BME280;8498;52.516;13.790;2023-02-18T07:17:15;100985.59;;;8.33;69.36
17781;BME280;8498;52.516;13.790;2023-02-18T07:22:38;100966.66;;;8.24;69.70
17781;BME280;8498;52.516;13.790;2023-02-18T07:28:01;100971.03;;;8.25;70.33
17781;BME280;8498;52.516;13.790;2023-02-18T07:33:23;100954.13;;;8.27;70.06
17781;BME280;8498;52.516;13.790;2023-02-18T07:38:45;100961.06;;;8.30;69.73
17781;BME280;8498;52.516;13.790;2023-02-18T07:44:08;100958.25;;;8.33;69.57
17781;BME280;8498;52.516;13.790;2023-02-18T07:49:31;100957.94;;;8.39;69.62
17781;BME280;8498;52.516;13.790;2023-02-18T07:54:53;100943.06;;;8.52;69.14
17781;BME280;8498;52.516;13.790;2023-02-18T08:00:16;100932.16;;;8.58;69.00
17781;BME280;8498;52.516;13.790;2023-02-18T08:05:38;100930.94;;;8.64;69.26
17781;BME280;8498;52.516;13.790;2023-02-18T08:11:01;100936.78;;;8.70;69.15
17781;BME280;8498;52.516;13.790;2023-02-18T08:16:39;100925.97;;;8.73;69.32
17781;BME280;8498;52.516;13.790;2023-02-18T08:22:02;100903.06;;;8.88;73.58
17781;BME280;8498;52.516;13.790;2023-02-18T08:27:24;100894.66;;;9.70;69.90
17781;BME280;8498;52.516;13.790;2023-02-18T08:32:47;100880.09;;;9.63;68.16
17781;BME280;8498;52.516;13.790;2023-02-18T08:38:09;100883.13;;;9.27;69.39
17781;BME280;8498;52.516;13.790;2023-02-18T08:43:32;100877.44;;;8.89;72.10
17781;BME280;8498;52.516;13.790;2023-02-18T08:48:54;100868.72;;;8.87;72.35
17781;BME280;8498;52.516;13.790;2023-02-18T08:54:17;100873.94;;;8.72;72.92
17781;BME280;8498;52.516;13.790;2023-02-18T08:59:40;100854.91;;;8.81;74.37
17781;BME280;8498;52.516;13.790;2023-02-18T09:05:02;100867.53;;;8.92;74.84
17781;BME280;8498;52.516;13.790;2023-02-18T09:10:25;100857.31;;;8.70;77.48
17781;BME280;8498;52.516;13.790;2023-02-18T09:15:55;100858.94;;;8.57;78.65
17781;BME280;8498;52.516;13.790;2023-02-18T09:21:18;100860.94;;;8.38;80.52
17781;BME280;8498;52.516;13.790;2023-02-18T09:26:41;100862.16;;;8.31;82.48
17781;BME280;8498;52.516;13.790;2023-02-18T09:32:05;100843.34;;;8.37;83.52
17781;BME280;8498;52.516;13.790;2023-02-18T09:37:27;100836.13;;;8.23;84.94
17781;BME280;8498;52.516;13.790;2023-02-18T09:42:54;100832.22;;;8.30;85.87
17781;BME280;8498;52.516;13.790;2023-02-18T09:48:17;100819.22;;;8.26;85.77
17781;BME280;8498;52.516;13.790;2023-02-18T09:53:41;100817.53;;;8.25;87.48
17781;BME280;8498;52.516;13.790;2023-02-18T09:59:05;100817.69;;;8.22;88.88
17781;BME280;8498;52.516;13.790;2023-02-18T10:04:43;100777.47;;;8.31;89.28
17781;BME280;8498;52.516;13.790;2023-02-18T10:10:38;100753.53;;;8.18;91.19
17781;BME280;8498;52.516;13.790;2023-02-18T10:16:02;100739.59;;;8.30;91.64
17781;BME280;8498;52.516;13.790;2023-02-18T10:21:27;100750.19;;;8.15;92.47
17781;BME280;8498;52.516;13.790;2023-02-18T10:26:52;100735.25;;;8.14;93.75
17781;BME280;8498;52.516;13.790;2023-02-18T10:32:37;100721.78;;;8.02;95.09
17781;BME280;8498;52.516;13.790;2023-02-18T10:43:47;100663.13;;;8.10;97.94
17781;BME280;8498;52.516;13.790;2023-02-18T10:50:04;100656.78;;;7.98;98.93
17781;BME280;8498;52.516;13.790;2023-02-18T10:54:59;100621.31;;;7.87;100.00
17781;BME280;8498;52.516;13.790;2023-02-18T11:00:26;100606.63;;;7.81;100.00
17781;BME280;8498;52.516;13.790;2023-02-18T11:05:54;100598.06;;;7.92;100.00
17781;BME280;8498;52.516;13.790;2023-02-18T11:11:24;100590.41;;;7.87;100.00
17781;BME280;8498;52.516;13.790;2023-02-18T11:16:50;100566.53;;;7.89;100.00
17781;BME280;8498;52.516;13.790;2023-02-18T11:22:27;100536.88;;;7.98;100.00
17781;BME280;8498;52.516;13.790;2023-02-18T11:27:59;100508.63;;;7.98;100.00
17781;BME280;8498;52.516;13.790;2023-02-18T11:33:32;100502.41;;;8.14;100.00
17781;BME280;8498;52.516;13.790;2023-02-18T11:55:32;100439.47;;;8.04;100.00
17781;BME280;8498;52.516;13.790;2023-02-18T12:00:55;100428.50;;;8.10;100.00
17781;BME280;8498;52.516;13.790;2023-02-18T12:06:27;100437.41;;;8.09;100.00
17781;BME280;8498;52.516;13.790;2023-02-18T12:11:57;100388.09;;;8.08;100.00
17781;BME280;8498;52.516;13.790;2023-02-18T12:18:25;100411.13;;;8.06;100.00
17781;BME280;8498;52.516;13.790;2023-02-18T12:23:55;100362.16;;;8.28;100.00
17781;BME280;8498;52.516;13.790;2023-02-18T13:14:42;100269.63;;;9.69;100.00
17781;BME280;8498;52.516;13.790;2023-02-18T13:20:32;100253.66;;;9.94;100.00
17781;BME280;8498;52.516;13.790;2023-02-18T13:26:00;100251.88;;;10.18;100.00
17781;BME280;8498;52.516;13.790;2023-02-18T13:42:44;100216.53;;;10.77;100.00
17781;BME280;8498;52.516;13.790;2023-02-18T13:48:26;100230.69;;;10.88;100.00
17781;BME280;8498;52.516;13.790;2023-02-18T13:53:50;100222.97;;;10.96;100.00
17781;BME280;8498;52.516;13.790;2023-02-18T13:59:22;100201.97;;;11.16;100.00
17781;BME280;8498;52.516;13.790;2023-02-18T14:04:54;100196.31;;;11.31;100.00
17781;BME280;8498;52.516;13.790;2023-02-18T14:15:53;100205.84;;;11.34;100.00
17781;BME280;8498;52.516;13.790;2023-02-18T14:26:43;100190.13;;;11.42;100.00
17781;BME280;8498;52.516;13.790;2023-02-18T14:32:10;100193.28;;;11.36;100.00
17781;BME280;8498;52.516;13.790;2023-02-18T14:37:48;100222.63;;;11.34;100.00
17781;BME280;8498;52.516;13.790;2023-02-18T14:55:22;100220.59;;;11.38;100.00
17781;BME280;8498;52.516;13.790;2023-02-18T15:00:46;100228.34;;;11.41;100.00
17781;BME280;8498;52.516;13.790;2023-02-18T15:06:58;100234.63;;;11.29;100.00
17781;BME280;8498;52.516;13.790;2023-02-18T15:12:16;100232.44;;;11.34;100.00
17781;BME280;8498;52.516;13.790;2023-02-18T15:17:44;100223.72;;;11.32;100.00
17781;BME280;8498;52.516;13.790;2023-02-18T15:23:12;100236.53;;;11.27;100.00
17781;BME280;8498;52.516;13.790;2023-02-18T15:28:41;100245.00;;;11.32;100.00
17781;BME280;8498;52.516;13.790;2023-02-18T15:34:37;100263.38;;;11.35;100.00
17781;BME280;8498;52.516;13.790;2023-02-18T15:40:00;100271.59;;;11.21;100.00
17781;BME280;8498;52.516;13.790;2023-02-18T15:45:28;100291.88;;;11.22;100.00
17781;BME280;8498;52.516;13.790;2023-02-18T15:50:54;100308.19;;;11.17;100.00
17781;BME280;8498;52.516;13.790;2023-02-18T15:56:35;100336.88;;;11.01;100.00
17781;BME280;8498;52.516;13.790;2023-02-18T16:02:18;100351.06;;;10.78;100.00
17781;BME280;8498;52.516;13.790;2023-02-18T16:07:52;100367.94;;;10.53;100.00
17781;BME280;8498;52.516;13.790;2023-02-18T16:13:18;100378.19;;;10.46;100.00
17781;BME280;8498;52.516;13.790;2023-02-18T16:18:41;100383.75;;;10.18;100.00
17781;BME280;8498;52.516;13.790;2023-02-18T16:24:27;100416.25;;;10.21;100.00
17781;BME280;8498;52.516;13.790;2023-02-18T16:29:50;100422.19;;;10.00;100.00
17781;BME280;8498;52.516;13.790;2023-02-18T16:35:16;100444.50;;;9.84;100.00
17781;BME280;8498;52.516;13.790;2023-02-18T16:40:38;100456.81;;;9.85;100.00
17781;BME280;8498;52.516;13.790;2023-02-18T16:51:37;100473.44;;;9.75;100.00
17781;BME280;8498;52.516;13.790;2023-02-18T16:57:02;100484.31;;;9.57;100.00
17781;BME280;8498;52.516;13.790;2023-02-18T17:02:25;100505.13;;;9.51;100.00
17781;BME280;8498;52.516;13.790;2023-02-18T17:07:47;100522.16;;;9.47;100.00
17781;BME280;8498;52.516;13.790;2023-02-18T17:13:16;100537.19;;;9.34;100.00
17781;BME280;8498;52.516;13.790;2023-02-18T17:18:39;100556.97;;;9.28;100.00
17781;BME280;8498;52.516;13.790;2023-02-18T17:24:03;100576.53;;;9.13;100.00
17781;BME280;8498;52.516;13.790;2023-02-18T17:29:26;100595.66;;;9.04;100.00
17781;BME280;8498;52.516;13.790;2023-02-18T17:34:48;100617.06;;;9.01;100.00
17781;BME280;8498;52.516;13.790;2023-02-18T17:40:15;100628.09;;;8.93;100.00
17781;BME280;8498;52.516;13.790;2023-02-18T17:46:04;100644.88;;;8.79;100.00
17781;BME280;8498;52.516;13.790;2023-02-18T17:51:27;100647.16;;;8.71;100.00
17781;BME280;8498;52.516;13.790;2023-02-18T17:56:52;100656.88;;;8.71;100.00
17781;BME280;8498;52.516;13.790;2023-02-18T18:02:25;100679.09;;;8.68;100.00
17781;BME280;8498;52.516;13.790;2023-02-18T18:07:49;100686.09;;;8.69;100.00
17781;BME280;8498;52.516;13.790;2023-02-18T18:13:17;100696.09;;;8.64;100.00
17781;BME280;8498;52.516;13.790;2023-02-18T18:18:40;100693.94;;;8.57;100.00
17781;BME280;8498;52.516;13.790;2023-02-18T18:24:02;100715.59;;;8.63;100.00
17781;BME280;8498;52.516;13.790;2023-02-18T18:29:25;100723.19;;;8.69;100.00
17781;BME280;8498;52.516;13.790;2023-02-18T18:34:48;100724.03;;;8.70;100.00
17781;BME280;8498;52.516;13.790;2023-02-18T18:40:10;100741.34;;;8.61;100.00
17781;BME280;8498;52.516;13.790;2023-02-18T18:45:35;100753.72;;;8.61;100.00
17781;BME280;8498;52.516;13.790;2023-02-18T18:51:00;100746.63;;;8.61;100.00
17781;BME280;8498;52.516;13.790;2023-02-18T18:56:23;100760.22;;;8.55;100.00
17781;BME280;8498;52.516;13.790;2023-02-18T19:01:46;100755.84;;;8.54;100.00
17781;BME280;8498;52.516;13.790;2023-02-18T19:07:08;100763.03;;;8.52;100.00
17781;BME280;8498;52.516;13.790;2023-02-18T19:12:31;100761.50;;;8.48;100.00
17781;BME280;8498;52.516;13.790;2023-02-18T19:17:54;100781.69;;;8.35;99.63
17781;BME280;8498;52.516;13.790;2023-02-18T19:23:16;100784.81;;;8.26;99.31
17781;BME280;8498;52.516;13.790;2023-02-18T19:28:38;100796.34;;;8.25;98.66
17781;BME280;8498;52.516;13.790;2023-02-18T19:34:00;100800.47;;;8.30;98.38
17781;BME280;8498;52.516;13.790;2023-02-18T19:39:23;100807.09;;;8.22;98.25
17781;BME280;8498;52.516;13.790;2023-02-18T19:44:46;100814.81;;;8.26;97.33
17781;BME280;8498;52.516;13.790;2023-02-18T19:50:12;100828.28;;;8.22;97.58
17781;BME280;8498;52.516;13.790;2023-02-18T19:55:35;100820.94;;;8.27;97.41
17781;BME280;8498;52.516;13.790;2023-02-18T20:00:57;100829.13;;;8.22;97.16
17781;BME280;8498;52.516;13.790;2023-02-18T20:06:21;100836.56;;;8.16;96.34
17781;BME280;8498;52.516;13.790;2023-02-18T20:11:43;100849.38;;;8.07;95.88
17781;BME280;8498;52.516;13.790;2023-02-18T20:17:06;100843.47;;;8.02;95.32
17781;BME280;8498;52.516;13.790;2023-02-18T20:22:28;100845.19;;;8.03;95.10
17781;BME280;8498;52.516;13.790;2023-02-18T20:27:51;100845.84;;;7.91;95.69
17781;BME280;8498;52.516;13.790;2023-02-18T20:33:22;100852.69;;;7.95;95.69
17781;BME280;8498;52.516;13.790;2023-02-18T20:38:48;100872.38;;;7.90;95.28
17781;BME280;8498;52.516;13.790;2023-02-18T20:44:13;100881.34;;;7.87;95.34
17781;BME280;8498;52.516;13.790;2023-02-18T20:49:36;100886.44;;;7.90;95.24
17781;BME280;8498;52.516;13.790;2023-02-18T20:55:01;100888.88;;;7.95;95.68
17781;BME280;8498;52.516;13.790;2023-02-18T21:00:23;100887.22;;;7.92;96.32
17781;BME280;8498;52.516;13.790;2023-02-18T21:05:56;100902.16;;;7.93;96.40
17781;BME280;8498;52.516;13.790;2023-02-18T21:11:24;100898.94;;;7.88;95.90
17781;BME280;8498;52.516;13.790;2023-02-18T21:16:47;100894.66;;;7.86;96.49
17781;BME280;8498;52.516;13.790;2023-02-18T21:22:09;100902.50;;;7.87;95.63
17781;BME280;8498;52.516;13.790;2023-02-18T21:27:32;100896.66;;;7.81;96.09
17781;BME280;8498;52.516;13.790;2023-02-18T21:32:55;100902.03;;;7.79;96.17
17781;BME280;8498;52.516;13.790;2023-02-18T21:38:18;100906.56;;;7.77;95.85
17781;BME280;8498;52.516;13.790;2023-02-18T21:43:44;100899.72;;;7.73;95.90
17781;BME280;8498;52.516;13.790;2023-02-18T21:49:07;100898.03;;;7.72;95.90
17781;BME280;8498;52.516;13.790;2023-02-18T21:54:34;100893.06;;;7.66;95.87
17781;BME280;8498;52.516;13.790;2023-02-18T22:00:02;100899.59;;;7.59;96.52
17781;BME280;8498;52.516;13.790;2023-02-18T22:05:40;100900.38;;;7.61;97.34
17781;BME280;8498;52.516;13.790;2023-02-18T22:11:04;100900.56;;;7.58;96.80
17781;BME280;8498;52.516;13.790;2023-02-18T22:16:27;100897.81;;;7.59;96.63
17781;BME280;8498;52.516;13.790;2023-02-18T22:21:50;100909.41;;;7.57;96.82
17781;BME280;8498;52.516;13.790;2023-02-18T22:27:12;100920.28;;;7.51;96.64
17781;BME280;8498;52.516;13.790;2023-02-18T22:32:36;100917.72;;;7.49;97.32
17781;BME280;8498;52.516;13.790;2023-02-18T22:37:58;100919.69;;;7.46;96.39
17781;BME280;8498;52.516;13.790;2023-02-18T22:43:21;100918.91;;;7.44;96.75
17781;BME280;8498;52.516;13.790;2023-02-18T22:48:44;100912.34;;;7.51;96.14
17781;BME280;8498;52.516;13.790;2023-02-18T22:54:10;100914.47;;;7.44;95.93
17781;BME280;8498;52.516;13.790;2023-02-18T22:59:33;100916.25;;;7.44;96.08
17781;BME280;8498;52.516;13.790;2023-02-18T23:04:56;100916.34;;;7.42;96.23
17781;BME280;8498;52.516;13.790;2023-02-18T23:10:19;100921.09;;;7.35;96.36
17781;BME280;8498;52.516;13.790;2023-02-18T23:15:42;100916.25;;;7.44;95.68
17781;BME280;8498;52.516;13.790;2023-02-18T23:21:13;100914.88;;;7.36;95.68
17781;BME280;8498;52.516;13.790;2023-02-18T23:26:38;100906.16;;;7.34;95.52
17781;BME280;8498;52.516;13.790;2023-02-18T23:32:01;100902.75;;;7.32;95.70
17781;BME280;8498;52.516;13.790;2023-02-18T23:37:24;100904.13;;;7.22;96.09
17781;BME280;8498;52.516;13.790;2023-02-18T23:43:05;100898.94;;;7.21;96.35
17781;BME280;8498;52.516;13.790;2023-02-18T23:48:27;100893.44;;;7.25;95.90
17781;BME280;8498;52.516;13.790;2023-02-18T23:53:50;100904.28;;;7.19;95.34
17781;BME280;8498;52.516;13.790;2023-02-18T23:59:12;100904.47;;;7.16;95.25
